createdAt,value
2022-12-08T00:01:23.178Z,7.93
2022-12-08T00:03:50.560Z,8.82
2022-12-08T00:06:59.681Z,8.43
2022-12-08T00:09:39.138Z,8.82
2022-12-08T00:12:17.695Z,8.15
2022-12-08T00:14:47.291Z,8.77
2022-12-08T00:17:15.712Z,9.05
2022-12-08T00:19:42.889Z,7.45
2022-12-08T00:22:11.043Z,8.30
2022-12-08T00:24:41.796Z,6.97
2022-12-08T00:27:09.498Z,8.05
2022-12-08T00:29:36.075Z,7.32
2022-12-08T00:32:02.699Z,6.50
2022-12-08T00:34:29.264Z,6.53
2022-12-08T00:36:55.772Z,7.03
2022-12-08T00:39:22.395Z,5.78
2022-12-08T00:42:07.239Z,5.43
2022-12-08T00:44:34.738Z,5.82
2022-12-08T00:47:01.269Z,6.10
2022-12-08T00:49:27.828Z,5.18
2022-12-08T00:51:54.524Z,4.93
2022-12-08T00:54:23.091Z,4.90
2022-12-08T00:56:50.550Z,3.83
2022-12-08T00:59:17.366Z,4.03
2022-12-08T01:01:45.749Z,4.70
2022-12-08T01:04:16.213Z,3.70
2022-12-08T01:06:43.002Z,3.25
2022-12-08T01:09:11.178Z,3.67
2022-12-08T01:11:39.553Z,3.15
2022-12-08T01:14:06.103Z,3.45
2022-12-08T01:16:35.595Z,3.53
2022-12-08T01:19:03.370Z,3.42
2022-12-08T01:21:30.098Z,2.63
2022-12-08T01:23:59.241Z,2.95
2022-12-08T01:26:25.754Z,2.83
2022-12-08T01:28:52.339Z,2.50
2022-12-08T01:31:21.761Z,3.10
2022-12-08T01:33:49.503Z,2.65
2022-12-08T01:36:28.094Z,2.40
2022-12-08T01:38:58.406Z,2.58
2022-12-08T01:41:28.317Z,2.90
2022-12-08T01:44:20.919Z,2.65
2022-12-08T01:46:48.928Z,3.03
2022-12-08T01:49:22.973Z,2.40
2022-12-08T01:52:01.807Z,2.65
2022-12-08T01:54:31.962Z,2.63
2022-12-08T01:57:17.017Z,2.30
2022-12-08T01:59:49.865Z,2.90
2022-12-08T02:02:16.473Z,2.83
2022-12-08T02:04:43.042Z,2.40
2022-12-08T02:07:11.756Z,2.90
2022-12-08T02:09:40.171Z,2.65
2022-12-08T02:12:10.176Z,3.00
2022-12-08T02:14:36.855Z,2.72
2022-12-08T02:17:26.102Z,3.03
2022-12-08T02:20:37.852Z,2.58
2022-12-08T02:23:41.340Z,2.75
2022-12-08T02:26:36.924Z,2.47
2022-12-08T02:29:06.536Z,2.38
2022-12-08T02:32:12.371Z,2.97
2022-12-08T02:34:48.774Z,2.40
2022-12-08T02:37:31.734Z,2.42
2022-12-08T02:40:21.289Z,2.40
2022-12-08T02:42:54.814Z,3.10
2022-12-08T02:45:34.183Z,2.40
2022-12-08T02:48:00.868Z,3.00
2022-12-08T02:50:28.479Z,2.80
2022-12-08T02:52:55.415Z,3.10
2022-12-08T02:55:28.250Z,3.13
2022-12-08T02:58:22.889Z,2.72
2022-12-08T03:01:01.781Z,2.72
2022-12-08T03:03:41.936Z,2.88
2022-12-08T03:06:37.815Z,3.13
2022-12-08T03:09:25.332Z,2.88
2022-12-08T03:11:59.321Z,3.72
2022-12-08T03:14:26.211Z,3.72
2022-12-08T03:16:56.621Z,3.35
2022-12-08T03:19:27.471Z,3.42
2022-12-08T03:22:03.204Z,3.50
2022-12-08T03:24:34.851Z,2.90
2022-12-08T03:27:05.881Z,3.33
2022-12-08T03:32:13.754Z,3.08
2022-12-08T03:34:44.370Z,3.42
2022-12-08T03:37:10.934Z,3.88
2022-12-08T03:39:37.457Z,3.78
2022-12-08T03:42:04.034Z,3.80
2022-12-08T03:44:30.657Z,4.10
2022-12-08T03:46:57.334Z,3.95
2022-12-08T03:49:23.817Z,3.05
2022-12-08T03:51:50.460Z,3.63
2022-12-08T03:54:17.033Z,4.22
2022-12-08T03:56:44.022Z,3.80
2022-12-08T03:59:10.978Z,4.72
2022-12-08T04:01:37.549Z,3.92
2022-12-08T04:04:04.274Z,4.45
2022-12-08T04:06:30.889Z,4.53
2022-12-08T04:08:57.411Z,4.03
2022-12-08T04:11:23.928Z,4.20
2022-12-08T04:13:50.475Z,4.13
2022-12-08T04:16:23.150Z,4.13
2022-12-08T04:18:49.934Z,4.47
2022-12-08T04:21:18.295Z,4.38
2022-12-08T04:23:46.365Z,4.15
2022-12-08T04:26:13.709Z,4.80
2022-12-08T04:28:40.245Z,4.40
2022-12-08T04:31:07.271Z,4.32
2022-12-08T04:33:35.208Z,5.07
2022-12-08T04:36:04.942Z,5.70
2022-12-08T04:38:32.162Z,5.00
2022-12-08T04:40:58.962Z,5.88
2022-12-08T04:43:25.594Z,5.78
2022-12-08T04:45:52.321Z,5.40
2022-12-08T04:48:18.867Z,4.95
2022-12-08T04:50:45.799Z,5.78
2022-12-08T04:53:13.955Z,5.32
2022-12-08T04:55:43.876Z,5.40
2022-12-08T04:58:15.095Z,6.03
2022-12-08T05:00:42.291Z,6.00
2022-12-08T05:03:09.404Z,6.00
2022-12-08T05:05:36.066Z,7.18
2022-12-08T05:08:02.661Z,6.78
2022-12-08T05:10:29.223Z,7.53
2022-12-08T05:12:55.742Z,6.07
2022-12-08T05:15:22.327Z,7.00
2022-12-08T05:17:48.827Z,6.60
2022-12-08T05:20:15.334Z,6.20
2022-12-08T05:22:41.874Z,7.35
2022-12-08T05:25:08.944Z,7.20
2022-12-08T05:27:36.170Z,6.45
2022-12-08T05:30:03.400Z,7.13
2022-12-08T05:32:30.201Z,7.30
2022-12-08T05:34:56.739Z,7.00
2022-12-08T05:37:23.266Z,6.47
2022-12-08T05:39:49.739Z,7.75
2022-12-08T05:42:20.509Z,7.43
2022-12-08T05:44:49.696Z,7.40
2022-12-08T05:47:16.245Z,5.93
2022-12-08T05:49:42.747Z,7.30
2022-12-08T05:52:09.284Z,6.15
2022-12-08T05:54:35.873Z,6.35
2022-12-08T05:57:02.437Z,6.30
2022-12-08T05:59:28.937Z,6.78
2022-12-08T06:01:55.499Z,7.60
2022-12-08T06:04:22.258Z,6.80
2022-12-08T06:06:48.782Z,6.70
2022-12-08T06:09:15.358Z,7.63
2022-12-08T06:11:42.430Z,7.57
2022-12-08T06:14:12.192Z,8.13
2022-12-08T06:16:38.924Z,6.70
2022-12-08T06:19:05.467Z,7.20
2022-12-08T06:21:31.954Z,7.05
2022-12-08T06:23:58.539Z,6.30
2022-12-08T06:26:25.283Z,7.03
2022-12-08T06:28:52.096Z,6.93
2022-12-08T06:31:21.658Z,5.97
2022-12-08T06:33:48.539Z,6.78
2022-12-08T06:36:16.985Z,6.90
2022-12-08T06:38:44.179Z,6.30
2022-12-08T06:41:12.102Z,6.65
2022-12-08T06:43:39.058Z,6.20
2022-12-08T06:46:08.323Z,6.55
2022-12-08T06:48:34.950Z,5.68
2022-12-08T06:51:16.305Z,7.15
2022-12-08T06:53:44.085Z,6.75
2022-12-08T06:56:11.246Z,6.30
2022-12-08T06:58:38.732Z,7.07
2022-12-08T07:01:07.590Z,6.70
2022-12-08T07:03:34.418Z,6.97
2022-12-08T07:06:04.103Z,6.78
2022-12-08T07:08:31.801Z,7.35
2022-12-08T07:10:58.379Z,10.13
2022-12-08T07:13:24.990Z,6.80
2022-12-08T07:15:51.974Z,7.50
2022-12-08T07:18:18.538Z,7.47
2022-12-08T07:20:45.146Z,6.50
2022-12-08T07:23:11.644Z,7.40
2022-12-08T07:25:38.146Z,7.03
2022-12-08T07:28:08.666Z,7.40
2022-12-08T07:30:35.156Z,7.57
2022-12-08T07:33:03.078Z,7.72
2022-12-08T07:35:29.574Z,7.30
2022-12-08T07:37:56.052Z,7.88
2022-12-08T07:40:22.605Z,6.45
2022-12-08T07:42:49.275Z,7.10
2022-12-08T07:45:15.901Z,6.75
2022-12-08T07:47:42.377Z,12.20
2022-12-08T07:50:09.035Z,6.95
2022-12-08T07:52:35.962Z,6.63
2022-12-08T07:55:02.527Z,6.35
2022-12-08T07:57:29.106Z,6.05
2022-12-08T07:59:56.184Z,6.57
2022-12-08T08:02:25.744Z,6.93
2022-12-08T08:04:55.286Z,6.90
2022-12-08T08:07:21.987Z,6.13
2022-12-08T08:09:49.427Z,6.60
2022-12-08T08:12:31.289Z,7.00
2022-12-08T08:14:59.222Z,6.60
2022-12-08T08:17:25.898Z,6.25
2022-12-08T08:19:52.760Z,6.85
2022-12-08T08:22:19.523Z,6.30
2022-12-08T08:24:46.287Z,7.03
2022-12-08T08:27:12.882Z,6.00
2022-12-08T08:29:39.454Z,6.78
2022-12-08T08:32:06.076Z,6.47
2022-12-08T08:34:32.543Z,6.95
2022-12-08T08:36:59.203Z,6.32
2022-12-08T08:39:25.797Z,6.35
2022-12-08T08:41:52.481Z,5.88
2022-12-08T08:44:19.090Z,6.28
2022-12-08T08:46:45.888Z,6.35
2022-12-08T08:49:12.750Z,6.35
2022-12-08T08:51:39.409Z,5.40
2022-12-08T08:54:06.493Z,6.75
2022-12-08T08:56:33.085Z,6.03
2022-12-08T08:58:59.635Z,5.72
2022-12-08T09:01:28.231Z,6.25
2022-12-08T09:03:55.759Z,5.68
2022-12-08T09:06:23.182Z,6.95
2022-12-08T09:08:50.982Z,6.22
2022-12-08T09:11:18.750Z,6.35
2022-12-08T09:13:49.243Z,6.00
2022-12-08T09:16:16.826Z,7.15
2022-12-08T09:18:46.462Z,6.63
2022-12-08T09:21:16.794Z,6.88
2022-12-08T09:23:44.015Z,6.93
2022-12-08T09:26:10.819Z,6.80
2022-12-08T09:28:38.114Z,7.45
2022-12-08T09:31:05.805Z,7.18
2022-12-08T09:33:32.414Z,7.85
2022-12-08T09:36:03.855Z,7.55
2022-12-08T09:38:31.195Z,8.90
2022-12-08T09:40:58.819Z,7.70
2022-12-08T09:43:37.256Z,6.95
2022-12-08T09:46:10.518Z,6.95
2022-12-08T09:48:48.297Z,7.53
2022-12-08T09:51:16.713Z,6.93
2022-12-08T09:53:48.488Z,7.82
2022-12-08T09:56:30.324Z,7.18
2022-12-08T09:59:01.703Z,6.85
2022-12-08T10:01:34.290Z,7.20
2022-12-08T10:04:01.504Z,6.30
2022-12-08T10:06:51.599Z,7.32
2022-12-08T10:09:22.979Z,7.35
2022-12-08T10:12:17.534Z,6.70
2022-12-08T10:14:48.264Z,8.13
2022-12-08T10:17:22.109Z,7.50
2022-12-08T10:19:51.098Z,8.13
2022-12-08T10:22:25.171Z,8.25
2022-12-08T10:25:10.336Z,9.13
2022-12-08T10:27:37.390Z,8.30
2022-12-08T10:30:14.445Z,8.13
2022-12-08T10:32:45.245Z,8.45
2022-12-08T10:37:40.743Z,8.57
2022-12-08T10:40:15.573Z,7.90
2022-12-08T10:42:52.907Z,11.85
2022-12-08T10:45:37.985Z,8.93
2022-12-08T10:48:17.244Z,7.32
2022-12-08T10:50:47.000Z,7.75
2022-12-08T10:53:21.190Z,8.65
2022-12-08T10:56:08.368Z,8.13
2022-12-08T10:58:40.696Z,8.07
2022-12-08T11:01:18.576Z,8.27
2022-12-08T11:03:52.885Z,9.23
2022-12-08T11:06:24.450Z,8.45
2022-12-08T11:09:03.474Z,9.02
2022-12-08T11:11:56.888Z,10.73
2022-12-08T11:14:33.397Z,9.10
2022-12-08T11:17:02.999Z,13.27
2022-12-08T11:19:29.697Z,9.48
2022-12-08T11:21:57.335Z,9.45
2022-12-08T11:24:29.271Z,9.35
2022-12-08T11:27:03.926Z,10.70
2022-12-08T11:29:35.654Z,10.98
2022-12-08T11:32:06.504Z,10.45
2022-12-08T11:34:38.815Z,9.50
2022-12-08T11:37:08.779Z,10.35
2022-12-08T11:39:36.510Z,9.75
2022-12-08T11:42:05.153Z,11.52
2022-12-08T11:44:53.524Z,10.88
2022-12-08T11:47:34.629Z,12.48
2022-12-08T11:50:20.686Z,11.48
2022-12-08T11:52:51.251Z,10.88
2022-12-08T11:55:37.280Z,11.13
2022-12-08T11:58:18.172Z,11.05
2022-12-08T12:00:45.293Z,11.57
2022-12-08T12:03:43.775Z,13.27
2022-12-08T12:06:38.295Z,11.68
2022-12-08T12:09:16.794Z,12.65
2022-12-08T12:12:19.263Z,11.88
2022-12-08T12:15:23.134Z,13.02
2022-12-08T12:18:16.978Z,13.77
2022-12-08T12:21:02.258Z,13.05
2022-12-08T12:23:37.252Z,13.43
2022-12-08T12:26:09.494Z,14.60
2022-12-08T12:28:49.818Z,12.63
2022-12-08T12:31:21.793Z,13.85
2022-12-08T12:33:49.818Z,12.25
2022-12-08T12:36:17.082Z,13.48
2022-12-08T12:39:06.308Z,15.23
2022-12-08T12:41:41.666Z,15.05
2022-12-08T12:44:24.041Z,14.63
2022-12-08T12:46:50.513Z,15.75
2022-12-08T12:49:49.819Z,14.82
2022-12-08T12:52:16.708Z,15.60
2022-12-08T12:54:50.011Z,14.55
2022-12-08T12:57:23.132Z,13.25
2022-12-08T12:59:55.558Z,17.33
2022-12-08T13:02:34.308Z,15.68
2022-12-08T13:05:09.425Z,14.68
2022-12-08T13:07:56.268Z,14.35
2022-12-08T13:10:26.733Z,14.40
2022-12-08T13:13:12.717Z,14.18
2022-12-08T13:15:40.420Z,15.02
2022-12-08T13:18:21.910Z,17.55
2022-12-08T13:20:53.653Z,17.17
2022-12-08T13:23:38.368Z,15.85
2022-12-08T13:26:18.823Z,16.33
2022-12-08T13:29:04.034Z,13.25
2022-12-08T13:31:46.622Z,16.27
2022-12-08T13:34:22.414Z,15.48
2022-12-08T13:37:02.239Z,18.02
2022-12-08T13:39:41.521Z,14.93
2022-12-08T13:42:32.435Z,15.38
2022-12-08T13:48:23.437Z,15.88
2022-12-08T13:55:01.843Z,16.75
2022-12-08T13:57:05.439Z,16.45
2022-12-08T13:59:35.582Z,17.40
2022-12-08T14:02:05.743Z,17.17
2022-12-08T14:07:19.358Z,16.42
2022-12-08T14:09:46.339Z,18.63
2022-12-08T14:12:25.518Z,18.08
2022-12-08T14:15:03.261Z,16.70
2022-12-08T14:17:31.000Z,16.63
2022-12-08T14:20:01.077Z,16.13
2022-12-08T14:22:36.551Z,15.98
2022-12-08T14:25:04.953Z,16.45
2022-12-08T14:27:37.402Z,14.80
2022-12-08T14:30:08.760Z,15.57
2022-12-08T14:32:42.988Z,13.95
2022-12-08T14:35:09.434Z,13.20
2022-12-08T14:37:39.617Z,13.98
2022-12-08T14:40:22.775Z,17.23
2022-12-08T14:43:05.239Z,18.33
2022-12-08T14:45:35.282Z,16.75
2022-12-08T14:48:20.813Z,16.73
2022-12-08T14:51:12.094Z,15.80
2022-12-08T14:53:45.141Z,14.15
2022-12-08T14:56:51.744Z,14.23
2022-12-08T15:01:49.696Z,12.95
2022-12-08T15:04:24.625Z,12.73
2022-12-08T15:07:02.627Z,15.52
2022-12-08T15:09:38.464Z,14.57
2022-12-08T15:12:11.926Z,15.15
2022-12-08T15:14:42.656Z,15.25
2022-12-08T15:17:48.945Z,14.55
2022-12-08T15:20:42.579Z,16.13
2022-12-08T15:23:41.892Z,13.25
2022-12-08T15:26:09.075Z,13.93
2022-12-08T15:28:35.531Z,15.38
2022-12-08T15:31:02.045Z,15.98
2022-12-08T15:33:28.697Z,16.00
2022-12-08T15:35:55.359Z,14.25
2022-12-08T15:38:31.568Z,15.43
2022-12-08T15:41:00.973Z,15.52
2022-12-08T15:43:27.996Z,16.25
2022-12-08T15:45:59.627Z,16.60
2022-12-08T15:48:28.625Z,14.95
2022-12-08T15:50:56.493Z,14.88
2022-12-08T15:53:23.526Z,16.52
2022-12-08T15:56:19.026Z,14.90
2022-12-08T15:58:55.281Z,16.52
2022-12-08T16:01:23.465Z,16.25
2022-12-08T16:07:20.359Z,14.75
2022-12-08T16:09:40.917Z,14.50
2022-12-08T16:13:34.060Z,15.27
2022-12-08T16:18:26.827Z,15.13
2022-12-08T16:23:44.585Z,16.65
2022-12-08T16:26:39.482Z,14.70
2022-12-08T16:29:06.128Z,15.07
2022-12-08T16:31:32.886Z,14.57
2022-12-08T16:33:59.956Z,14.20
2022-12-08T16:36:26.432Z,14.00
2022-12-08T16:38:52.997Z,16.23
2022-12-08T16:41:38.781Z,16.65
2022-12-08T16:44:06.380Z,14.77
2022-12-08T16:46:33.457Z,15.18
2022-12-08T16:49:00.024Z,16.02
2022-12-08T16:51:27.499Z,15.25
2022-12-08T16:53:55.344Z,16.27
2022-12-08T16:56:28.774Z,15.77
2022-12-08T16:58:57.294Z,16.38
2022-12-08T17:01:24.862Z,15.18
2022-12-08T17:04:07.452Z,15.75
2022-12-08T17:06:37.914Z,16.25
2022-12-08T17:09:04.673Z,15.85
2022-12-08T17:11:37.501Z,16.02
2022-12-08T17:14:09.224Z,15.23
2022-12-08T17:16:35.976Z,17.02
2022-12-08T17:19:02.540Z,16.48
2022-12-08T17:21:29.117Z,17.13
2022-12-08T17:23:55.682Z,15.15
2022-12-08T17:26:22.193Z,16.15
2022-12-08T17:29:00.412Z,15.23
2022-12-08T17:31:30.240Z,15.70
2022-12-08T17:34:05.009Z,17.35
2022-12-08T17:36:31.527Z,16.80
2022-12-08T17:38:59.743Z,15.43
2022-12-08T17:41:26.426Z,15.68
2022-12-08T17:43:52.970Z,16.55
2022-12-08T17:46:20.168Z,16.27
2022-12-08T17:48:47.204Z,17.50
2022-12-08T17:51:14.101Z,15.80
2022-12-08T17:53:40.891Z,16.20
2022-12-08T17:56:15.627Z,16.38
2022-12-08T17:58:42.183Z,15.02
2022-12-08T18:01:10.150Z,15.00
2022-12-08T18:03:37.913Z,15.55
2022-12-08T18:06:06.882Z,15.75
2022-12-08T18:08:33.580Z,16.35
2022-12-08T18:11:00.521Z,15.02
2022-12-08T18:13:28.189Z,14.85
2022-12-08T18:15:54.819Z,15.32
2022-12-08T18:18:22.818Z,15.77
2022-12-08T18:20:50.098Z,14.70
2022-12-08T18:23:17.398Z,16.48
2022-12-08T18:25:44.628Z,16.80
2022-12-08T18:28:11.595Z,15.15
2022-12-08T18:30:40.045Z,15.63
2022-12-08T18:33:07.903Z,14.18
2022-12-08T18:35:34.950Z,15.82
2022-12-08T18:38:01.592Z,14.82
2022-12-08T18:40:28.693Z,15.02
2022-12-08T18:42:55.435Z,14.52
2022-12-08T18:45:22.851Z,15.43
2022-12-08T18:47:51.348Z,14.98
2022-12-08T18:50:19.564Z,15.15
2022-12-08T18:52:46.598Z,14.15
2022-12-08T18:55:14.328Z,14.77
2022-12-08T18:57:44.527Z,13.52
2022-12-08T19:00:14.296Z,22.30
2022-12-08T19:02:41.571Z,19.40
2022-12-08T19:05:10.925Z,15.68
2022-12-08T19:07:38.000Z,14.88
2022-12-08T19:10:06.361Z,14.63
2022-12-08T19:12:33.140Z,14.10
2022-12-08T19:15:01.937Z,13.40
2022-12-08T19:17:29.803Z,13.30
2022-12-08T19:19:56.341Z,13.07
2022-12-08T19:22:22.861Z,14.10
2022-12-08T19:24:49.439Z,14.90
2022-12-08T19:27:15.952Z,14.07
2022-12-08T19:29:42.509Z,13.77
2022-12-08T19:32:09.150Z,14.68
2022-12-08T19:34:35.722Z,14.85
2022-12-08T19:37:02.249Z,14.40
2022-12-08T19:39:47.721Z,14.38
2022-12-08T19:42:38.768Z,19.50
2022-12-08T19:45:18.410Z,14.48
2022-12-08T19:47:45.023Z,14.80
2022-12-08T19:50:32.502Z,16.02
2022-12-08T19:52:59.616Z,16.02
2022-12-08T19:55:26.875Z,15.25
2022-12-08T19:57:54.505Z,15.63
2022-12-08T20:00:21.570Z,16.10
2022-12-08T20:02:48.456Z,16.42
2022-12-08T20:05:15.743Z,16.20
2022-12-08T20:07:42.658Z,15.43
2022-12-08T20:10:22.158Z,16.38
2022-12-08T20:12:48.771Z,16.60
2022-12-08T20:15:15.770Z,16.20
2022-12-08T20:17:43.422Z,15.75
2022-12-08T20:20:12.176Z,17.27
2022-12-08T20:22:38.771Z,16.08
2022-12-08T20:25:05.674Z,17.08
2022-12-08T20:27:33.213Z,15.70
2022-12-08T20:29:59.772Z,16.40
2022-12-08T20:32:26.418Z,16.02
2022-12-08T20:34:53.000Z,14.80
2022-12-08T20:37:19.793Z,16.30
2022-12-08T20:39:46.331Z,15.55
2022-12-08T20:42:13.674Z,15.35
2022-12-08T20:44:44.314Z,17.10
2022-12-08T20:47:12.171Z,14.57
2022-12-08T20:49:38.942Z,16.35
2022-12-08T20:52:05.591Z,15.82
2022-12-08T20:54:32.198Z,15.52
2022-12-08T20:56:58.752Z,15.43
2022-12-08T20:59:26.464Z,15.00
2022-12-08T21:01:53.564Z,14.18
2022-12-08T21:04:20.960Z,16.52
2022-12-08T21:06:47.802Z,16.50
2022-12-08T21:09:14.535Z,16.05
2022-12-08T21:11:41.268Z,15.23
2022-12-08T21:14:07.988Z,15.55
2022-12-08T21:16:35.750Z,17.27
2022-12-08T21:19:02.680Z,17.17
2022-12-08T21:21:29.419Z,16.60
2022-12-08T21:23:56.477Z,17.17
2022-12-08T21:26:27.405Z,39.30
2022-12-08T21:31:27.105Z,20.88
2022-12-08T21:33:55.297Z,19.67
2022-12-08T21:36:22.158Z,17.55
2022-12-08T21:38:49.350Z,17.75
2022-12-08T21:41:39.820Z,19.15
2022-12-08T21:44:08.577Z,16.75
2022-12-08T21:46:35.459Z,17.58
2022-12-08T21:49:02.449Z,16.77
2022-12-08T21:51:29.217Z,19.27
2022-12-08T21:53:56.044Z,17.10
2022-12-08T21:56:23.841Z,18.73
2022-12-08T21:58:50.773Z,17.55
2022-12-08T22:01:17.464Z,19.48
2022-12-08T22:03:44.211Z,18.38
2022-12-08T22:06:13.489Z,18.63
2022-12-08T22:08:41.350Z,16.50
2022-12-08T22:11:10.017Z,17.52
2022-12-08T22:13:39.164Z,19.65
2022-12-08T22:16:09.010Z,19.05
2022-12-08T22:18:37.120Z,18.90
2022-12-08T22:21:16.338Z,18.73
2022-12-08T22:23:44.061Z,18.88
2022-12-08T22:26:11.783Z,21.00
2022-12-08T22:28:41.087Z,18.45
2022-12-08T22:31:19.761Z,19.73
2022-12-08T22:33:47.586Z,18.10
2022-12-08T22:36:17.505Z,19.73
2022-12-08T22:38:45.865Z,20.10
2022-12-08T22:41:13.025Z,19.35
2022-12-08T22:43:40.293Z,20.38
2022-12-08T22:46:12.857Z,18.70
2022-12-08T22:48:39.986Z,24.63
2022-12-08T22:51:06.980Z,21.75
2022-12-08T22:53:34.154Z,21.33
2022-12-08T22:56:04.522Z,19.92
2022-12-08T22:58:31.148Z,20.60
2022-12-08T23:00:57.766Z,20.45
2022-12-08T23:03:24.445Z,19.55
2022-12-08T23:05:52.124Z,19.88
2022-12-08T23:08:18.871Z,20.65
2022-12-08T23:10:47.431Z,20.70
2022-12-08T23:13:14.823Z,20.13
2022-12-08T23:15:41.413Z,21.63
2022-12-08T23:18:08.708Z,20.23
2022-12-08T23:20:35.733Z,21.63
2022-12-08T23:23:02.283Z,20.48
2022-12-08T23:25:28.856Z,21.13
2022-12-08T23:27:55.363Z,20.10
2022-12-08T23:30:21.922Z,21.23
2022-12-08T23:32:49.913Z,19.00
2022-12-08T23:35:16.644Z,19.92
2022-12-08T23:37:43.284Z,21.13
2022-12-08T23:40:10.414Z,21.55
2022-12-08T23:42:37.420Z,22.90
2022-12-08T23:45:05.528Z,19.83
2022-12-08T23:47:32.355Z,21.92
2022-12-08T23:49:59.029Z,21.63
2022-12-08T23:52:25.685Z,21.98
2022-12-08T23:54:54.637Z,23.63
2022-12-08T23:57:21.724Z,21.40
2022-12-08T23:59:48.341Z,24.83
